Angoulême-Brie-Champniers Airport

Airport
ICAO code: 
LFBU
IATA Code: 
ANG
Summary
ICAO Region: 
EUR
Territory: 
Location: 
, Poitou-Charentes
Serving: 
Angouleme
Elevation: 
436 ft
Coordinates: 
Aerial View: 
45° 43' 45.289" N, 0° 13' 17.242" E
Metar
Observation
LFBU 041330Z AUTO 27016KT 9999 FEW022 OVC088 10/07 Q1010 TEMPO 31020G35KT 3000 SHRA SCT015CB BKN020TCU
Station
BRIE CHAMPNIERS
Date/Time
2021-12-04 13:30:00
Wind direction
270°
Wind speed
16 kts
Lowest cloud amount
few clouds
Temperature
10°C
Dew point
7°C
Humidity
81%
QNH
1010 hPa
Weather condition
n/a

Runways

Designator Length Width Surface Rops
10/28 1810 45 ASP No/No
Airport map: 
Aerial View: 

SKYbrary Partners:

Safety knowledge contributed by: